createdAt,value
2022-07-29T00:00:39.082Z,94876.19
2022-07-29T00:01:35.815Z,94925.03
2022-07-29T00:02:33.159Z,94899.13
2022-07-29T00:03:30.025Z,94919.69
2022-07-29T00:04:26.997Z,94869.03
2022-07-29T00:05:23.837Z,94921.59
2022-07-29T00:06:21.903Z,94809.03
2022-07-29T00:07:18.816Z,94911.66
2022-07-29T00:08:16.575Z,94900.66
2022-07-29T00:09:13.352Z,94917.78
2022-07-29T00:10:10.075Z,94867.34
2022-07-29T00:11:06.872Z,94914.53
2022-07-29T00:12:04.060Z,94909.19
2022-07-29T00:13:00.880Z,94885.28
2022-07-29T00:13:57.892Z,94919.94
2022-07-29T00:14:56.265Z,94875.16
2022-07-29T00:15:53.004Z,94876.19
2022-07-29T00:16:49.774Z,94902.31
2022-07-29T00:17:46.594Z,94875.41
2022-07-29T00:18:43.336Z,94899.66
2022-07-29T00:19:42.800Z,94902.59
2022-07-29T00:20:42.233Z,94903.66
2022-07-29T00:21:38.941Z,94787.63
2022-07-29T00:22:39.049Z,94904.09
2022-07-29T00:23:36.945Z,94884.63
2022-07-29T00:24:33.898Z,94899.50
2022-07-29T00:25:30.602Z,94886.28
2022-07-29T00:26:32.751Z,94885.84
2022-07-29T00:27:29.846Z,94908.00
2022-07-29T00:28:26.565Z,94903.41
2022-07-29T00:29:38.642Z,94913.03
2022-07-29T00:30:35.381Z,94911.47
2022-07-29T00:31:32.332Z,94873.03
2022-07-29T00:32:29.203Z,94917.31
2022-07-29T00:33:25.966Z,94924.06
2022-07-29T00:34:41.443Z,94923.78
2022-07-29T00:35:47.303Z,94928.28
2022-07-29T00:36:44.076Z,94930.44
2022-07-29T00:37:41.099Z,94937.94
2022-07-29T00:38:37.875Z,94915.78
2022-07-29T00:39:34.694Z,94937.72
2022-07-29T00:40:31.441Z,94921.16
2022-07-29T00:41:28.167Z,94928.16
2022-07-29T00:42:24.985Z,94930.28
2022-07-29T00:43:21.887Z,94922.81
2022-07-29T00:44:18.689Z,94922.03
2022-07-29T00:45:17.605Z,94918.00
2022-07-29T00:46:14.360Z,94921.22
2022-07-29T00:47:12.718Z,94919.88
2022-07-29T00:48:09.895Z,94910.53
2022-07-29T00:49:08.513Z,94911.03
2022-07-29T00:50:07.957Z,94796.00
2022-07-29T00:51:06.098Z,94911.31
2022-07-29T00:52:05.245Z,94896.31
2022-07-29T00:53:04.498Z,94914.78
2022-07-29T00:54:01.243Z,94863.50
2022-07-29T00:54:58.514Z,94908.88
2022-07-29T00:55:56.470Z,94881.16
2022-07-29T00:56:53.533Z,94876.34
2022-07-29T00:57:50.610Z,94907.84
2022-07-29T00:58:49.147Z,94931.31
2022-07-29T00:59:45.861Z,94903.03
2022-07-29T01:00:43.061Z,94916.38
2022-07-29T01:01:42.314Z,94916.91
2022-07-29T01:02:39.338Z,94860.88
2022-07-29T01:03:36.071Z,94787.81
2022-07-29T01:04:33.514Z,94881.69
2022-07-29T01:05:50.289Z,94882.25
2022-07-29T01:06:49.815Z,94875.31
2022-07-29T01:07:48.563Z,94894.78
2022-07-29T01:08:48.611Z,94893.75
2022-07-29T01:09:48.214Z,94853.41
2022-07-29T01:10:47.800Z,94824.09
2022-07-29T01:11:48.721Z,94864.88
2022-07-29T01:12:50.083Z,94772.38
2022-07-29T01:13:48.667Z,94845.44
2022-07-29T01:14:47.440Z,94880.91
2022-07-29T01:16:04.454Z,94867.53
2022-07-29T01:17:18.063Z,94775.28
2022-07-29T01:18:25.141Z,94889.47
2022-07-29T01:19:43.414Z,94887.06
2022-07-29T01:20:55.233Z,94888.66
2022-07-29T01:21:58.605Z,94903.88
2022-07-29T01:23:15.967Z,94872.13
2022-07-29T01:24:25.233Z,94858.25
2022-07-29T01:25:24.744Z,94882.81
2022-07-29T01:26:44.085Z,94882.22
2022-07-29T01:27:56.634Z,94871.00
2022-07-29T01:29:08.491Z,94864.06
2022-07-29T01:30:06.618Z,94885.13
2022-07-29T01:31:11.235Z,94869.41
2022-07-29T01:32:28.216Z,94885.94
2022-07-29T01:33:47.727Z,94851.84
2022-07-29T01:35:04.144Z,94884.66
2022-07-29T01:36:05.908Z,94884.94
2022-07-29T01:37:07.276Z,94875.59
2022-07-29T01:38:14.545Z,94881.19
2022-07-29T01:39:33.316Z,94862.00
2022-07-29T01:40:41.612Z,94888.94
2022-07-29T01:41:48.663Z,94879.59
2022-07-29T01:42:51.452Z,94871.59
2022-07-29T01:44:03.807Z,94859.53
2022-07-29T01:45:16.771Z,94863.56
2022-07-29T01:46:22.430Z,94878.00
2022-07-29T01:47:24.540Z,94866.25
2022-07-29T01:48:28.594Z,94852.34
2022-07-29T01:49:30.753Z,94869.97
2022-07-29T01:50:46.462Z,94869.97
2022-07-29T01:51:51.506Z,94884.91
2022-07-29T01:52:57.044Z,94780.38
2022-07-29T01:54:14.012Z,94886.75
2022-07-29T01:55:15.912Z,94874.75
2022-07-29T01:56:17.183Z,94885.94
2022-07-29T01:57:18.584Z,94830.47
2022-07-29T01:58:17.170Z,94881.69
2022-07-29T01:59:19.923Z,94845.94
2022-07-29T02:00:19.579Z,94755.84
2022-07-29T02:01:18.980Z,94886.50
2022-07-29T02:02:19.331Z,94837.44
2022-07-29T02:03:19.505Z,94878.50
2022-07-29T02:04:29.471Z,94885.72
2022-07-29T02:05:29.844Z,94882.78
2022-07-29T02:06:29.433Z,94749.16
2022-07-29T02:07:30.349Z,94832.34
2022-07-29T02:08:30.221Z,94840.66
2022-07-29T02:09:28.311Z,94791.03
2022-07-29T02:10:30.842Z,94867.56
2022-07-29T02:11:28.282Z,94872.63
2022-07-29T02:12:28.902Z,94869.97
2022-07-29T02:13:29.954Z,94877.44
2022-07-29T02:14:32.926Z,94867.59
2022-07-29T02:15:33.413Z,94850.75
2022-07-29T02:16:33.533Z,94869.97
2022-07-29T02:17:36.067Z,94791.81
2022-07-29T02:18:40.616Z,94865.19
2022-07-29T02:19:39.757Z,94870.53
2022-07-29T02:20:39.727Z,94870.00
2022-07-29T02:21:36.615Z,94855.59
2022-07-29T02:22:38.079Z,94861.72
2022-07-29T02:23:51.087Z,94858.72
2022-07-29T02:24:52.421Z,94871.00
2022-07-29T02:25:52.669Z,94823.00
2022-07-29T02:26:52.292Z,94849.66
2022-07-29T02:27:52.362Z,94856.84
2022-07-29T02:28:52.827Z,94849.09
2022-07-29T02:29:51.733Z,94861.31
2022-07-29T02:30:53.197Z,94819.47
2022-07-29T02:31:52.899Z,94855.72
2022-07-29T02:32:52.901Z,94858.91
2022-07-29T02:33:52.851Z,94841.28
2022-07-29T02:34:52.678Z,94825.63
2022-07-29T02:35:51.055Z,94843.69
2022-07-29T02:36:50.227Z,94812.84
2022-07-29T02:38:09.658Z,94839.22
2022-07-29T02:39:10.823Z,94810.16
2022-07-29T02:40:12.392Z,94787.56
2022-07-29T02:41:14.429Z,94846.94
2022-07-29T02:42:16.591Z,94818.72
2022-07-29T02:43:14.058Z,94835.25
2022-07-29T02:44:15.264Z,94854.94
2022-07-29T02:45:12.393Z,94859.78
2022-07-29T02:46:28.913Z,94855.00
2022-07-29T02:47:41.429Z,94847.50
2022-07-29T02:48:52.696Z,94857.06
2022-07-29T02:50:04.154Z,94825.31
2022-07-29T02:51:08.231Z,94857.88
2022-07-29T02:52:13.620Z,94845.31
2022-07-29T02:53:17.279Z,94823.41
2022-07-29T02:54:31.948Z,94827.16
2022-07-29T02:55:41.219Z,94835.69
2022-07-29T02:56:41.480Z,94855.97
2022-07-29T02:57:54.971Z,94850.13
2022-07-29T02:59:01.210Z,94851.22
2022-07-29T03:00:04.835Z,94850.91
2022-07-29T03:01:05.396Z,94844.78
2022-07-29T03:02:05.900Z,94721.66
2022-07-29T03:03:08.610Z,94839.22
2022-07-29T03:04:06.996Z,94858.13
2022-07-29T03:05:07.614Z,94810.16
2022-07-29T03:06:08.238Z,94848.78
2022-07-29T03:07:06.422Z,94850.38
2022-07-29T03:08:06.874Z,94813.91
2022-07-29T03:09:06.737Z,94860.25
2022-07-29T03:10:10.839Z,94804.00
2022-07-29T03:11:12.231Z,94849.88
2022-07-29T03:12:09.798Z,94813.88
2022-07-29T03:13:08.865Z,94828.56
2022-07-29T03:14:06.951Z,94862.97
2022-07-29T03:15:07.412Z,94774.47
2022-07-29T03:16:06.273Z,94728.09
2022-07-29T03:17:04.142Z,94811.28
2022-07-29T03:18:01.569Z,94723.84
2022-07-29T03:18:59.378Z,94824.06
2022-07-29T03:19:56.668Z,94852.84
2022-07-29T03:20:53.745Z,94706.25
2022-07-29T03:21:50.526Z,94736.63
2022-07-29T03:22:50.343Z,94732.41
2022-07-29T03:23:47.318Z,94841.16
2022-07-29T03:24:44.102Z,94827.25
2022-07-29T03:25:40.918Z,94857.91
2022-07-29T03:26:37.887Z,94851.25
2022-07-29T03:27:35.560Z,94829.44
2022-07-29T03:28:32.324Z,94852.34
2022-07-29T03:29:33.981Z,94819.53
2022-07-29T03:30:31.741Z,94866.75
2022-07-29T03:31:29.216Z,94857.16
2022-07-29T03:32:26.111Z,94862.50
2022-07-29T03:33:23.242Z,94867.31
2022-07-29T03:34:20.389Z,94860.91
2022-07-29T03:35:21.384Z,94857.41
2022-07-29T03:36:18.098Z,94855.56
2022-07-29T03:37:14.807Z,94848.09
2022-07-29T03:38:11.823Z,94874.25
2022-07-29T03:39:11.642Z,94817.41
2022-07-29T03:40:11.483Z,94868.94
2022-07-29T03:41:12.633Z,94847.28
2022-07-29T03:42:14.948Z,94852.34
2022-07-29T03:43:16.516Z,94856.63
2022-07-29T03:44:17.469Z,94749.97
2022-07-29T03:45:19.307Z,94872.91
2022-07-29T03:46:19.113Z,94831.56
2022-07-29T03:47:23.245Z,94860.63
2022-07-29T03:48:47.933Z,94874.78
2022-07-29T03:49:51.430Z,94853.44
2022-07-29T03:50:48.847Z,94849.69
2022-07-29T03:51:46.006Z,94863.03
2022-07-29T03:52:43.078Z,94844.09
2022-07-29T03:53:42.408Z,94793.44
2022-07-29T03:54:40.012Z,94787.81
2022-07-29T03:55:47.918Z,94830.75
2022-07-29T03:56:48.576Z,94856.34
2022-07-29T03:57:48.244Z,94849.69
2022-07-29T03:58:45.843Z,94751.59
2022-07-29T03:59:44.459Z,94887.56
2022-07-29T04:00:43.133Z,94880.09
2022-07-29T04:01:41.210Z,94760.63
2022-07-29T04:02:40.379Z,94830.50
2022-07-29T04:03:37.219Z,94824.09
2022-07-29T04:04:35.861Z,94882.75
2022-07-29T04:05:32.704Z,94868.88
2022-07-29T04:06:29.481Z,94873.69
2022-07-29T04:07:26.274Z,94865.66
2022-07-29T04:08:22.988Z,94853.38
2022-07-29T04:09:19.936Z,94878.50
2022-07-29T04:10:30.271Z,94862.44
2022-07-29T04:11:28.963Z,94837.63
2022-07-29T04:12:25.726Z,94889.13
2022-07-29T04:13:22.632Z,94853.13
2022-07-29T04:14:19.528Z,94864.59
2022-07-29T04:15:16.751Z,94859.25
2022-07-29T04:16:13.587Z,94820.28
2022-07-29T04:17:10.658Z,94870.41
2022-07-29T04:18:07.433Z,94862.94
2022-07-29T04:19:04.218Z,94882.16
2022-07-29T04:20:00.962Z,94844.81
2022-07-29T04:21:15.572Z,94780.34
2022-07-29T04:22:27.951Z,94838.94
2022-07-29T04:23:52.900Z,94800.28
2022-07-29T04:24:50.740Z,94861.81
2022-07-29T04:25:47.597Z,94863.41
2022-07-29T04:26:46.952Z,94827.66
2022-07-29T04:28:01.158Z,94846.88
2022-07-29T04:28:57.920Z,94871.91
2022-07-29T04:29:56.347Z,94778.94
2022-07-29T04:30:54.282Z,94883.13
2022-07-29T04:32:01.924Z,94872.22
2022-07-29T04:32:59.254Z,94870.91
2022-07-29T04:33:55.977Z,94873.56
2022-07-29T04:34:55.783Z,94872.81
2022-07-29T04:36:18.845Z,94868.56
2022-07-29T04:37:23.954Z,94837.28
2022-07-29T04:38:20.806Z,94876.25
2022-07-29T04:39:22.760Z,94883.47
2022-07-29T04:40:20.351Z,94849.03
2022-07-29T04:41:17.088Z,94872.53
2022-07-29T04:42:17.523Z,94885.31
2022-07-29T04:43:22.756Z,94821.25
2022-07-29T04:44:20.197Z,94892.53
2022-07-29T04:45:16.930Z,94884.81
2022-07-29T04:46:19.570Z,94890.66
2022-07-29T04:47:16.342Z,94889.09
2022-07-29T04:48:13.077Z,94906.44
2022-07-29T04:49:12.878Z,94833.59
2022-07-29T04:50:10.864Z,94893.34
2022-07-29T04:51:07.958Z,94904.59
2022-07-29T04:52:05.219Z,94903.28
2022-07-29T04:53:02.244Z,94873.63
2022-07-29T04:53:59.777Z,94868.81
2022-07-29T04:54:59.154Z,94873.59
2022-07-29T04:55:55.930Z,94828.25
2022-07-29T04:56:52.803Z,94880.50
2022-07-29T04:57:49.623Z,94847.97
2022-07-29T04:58:46.391Z,94876.78
2022-07-29T04:59:43.096Z,94891.72
2022-07-29T05:00:40.278Z,94768.53
2022-07-29T05:01:37.041Z,94902.91
2022-07-29T05:02:33.869Z,94890.41
2022-07-29T05:03:31.079Z,94783.78
2022-07-29T05:04:27.820Z,94898.06
2022-07-29T05:05:24.580Z,94866.06
2022-07-29T05:06:21.351Z,94893.22
2022-07-29T05:07:18.195Z,94900.41
2022-07-29T05:08:14.946Z,94903.41
2022-07-29T05:09:11.755Z,94903.72
2022-07-29T05:10:09.701Z,94914.34
2022-07-29T05:11:12.069Z,94907.09
2022-07-29T05:12:10.691Z,94893.72
2022-07-29T05:13:08.741Z,94890.56
2022-07-29T05:14:05.993Z,94784.25
2022-07-29T05:15:02.868Z,94764.00
2022-07-29T05:15:59.779Z,94864.06
2022-07-29T05:16:58.062Z,94881.34
2022-07-29T05:17:54.808Z,94900.94
2022-07-29T05:18:51.642Z,94811.72
2022-07-29T05:19:48.401Z,94898.59
2022-07-29T05:20:45.177Z,94899.25
2022-07-29T05:21:41.999Z,94899.25
2022-07-29T05:22:38.847Z,94909.34
2022-07-29T05:23:35.588Z,94890.31
2022-07-29T05:24:32.329Z,94753.34
2022-07-29T05:25:43.737Z,94899.59
2022-07-29T05:26:41.675Z,94902.34
2022-07-29T05:27:38.417Z,94872.41
2022-07-29T05:28:38.853Z,94906.28
2022-07-29T05:29:42.764Z,94903.16
2022-07-29T05:30:42.104Z,94919.72
2022-07-29T05:31:38.886Z,94822.16
2022-07-29T05:32:35.622Z,94803.22
2022-07-29T05:33:34.813Z,94914.94
2022-07-29T05:34:33.783Z,94909.50
2022-07-29T05:35:30.500Z,94808.53
2022-07-29T05:36:27.920Z,94864.75
2022-07-29T05:37:27.781Z,94903.59
2022-07-29T05:38:24.508Z,94907.16
2022-07-29T05:39:21.777Z,94904.19
2022-07-29T05:40:18.645Z,94877.44
2022-07-29T05:41:15.401Z,94773.38
2022-07-29T05:42:12.121Z,94913.56
2022-07-29T05:43:08.859Z,94892.44
2022-07-29T05:44:05.808Z,94814.94
2022-07-29T05:45:02.962Z,94917.19
2022-07-29T05:46:00.468Z,94919.50
2022-07-29T05:46:57.311Z,94912.47
2022-07-29T05:47:54.173Z,94875.41
2022-07-29T05:48:50.963Z,94932.84
2022-07-29T05:49:48.110Z,94923.88
2022-07-29T05:50:44.830Z,94906.25
2022-07-29T05:51:41.607Z,94920.78
2022-07-29T05:52:38.340Z,94911.44
2022-07-29T05:53:35.110Z,94913.06
2022-07-29T05:54:31.878Z,94923.19
2022-07-29T05:55:28.606Z,94880.34
2022-07-29T05:56:25.786Z,94907.50
2022-07-29T05:57:24.865Z,94916.31
2022-07-29T05:58:21.873Z,94893.97
2022-07-29T05:59:18.698Z,94877.09
2022-07-29T06:00:15.833Z,94936.16
2022-07-29T06:01:12.691Z,94928.50
2022-07-29T06:02:12.510Z,94853.00
2022-07-29T06:03:09.288Z,94917.72
2022-07-29T06:04:08.020Z,94916.44
2022-07-29T06:05:05.032Z,94907.84
2022-07-29T06:06:08.198Z,94910.59
2022-07-29T06:07:05.580Z,94931.59
2022-07-29T06:08:02.561Z,94892.38
2022-07-29T06:08:59.359Z,94934.50
2022-07-29T06:10:06.209Z,94923.28
2022-07-29T06:11:04.154Z,94917.59
2022-07-29T06:12:01.830Z,94945.59
2022-07-29T06:12:58.537Z,94935.91
2022-07-29T06:13:55.292Z,94903.47
2022-07-29T06:14:54.192Z,94924.81
2022-07-29T06:15:51.226Z,94873.75
2022-07-29T06:16:47.987Z,94918.84
2022-07-29T06:17:59.215Z,94893.44
2022-07-29T06:19:00.553Z,94904.28
2022-07-29T06:19:57.255Z,94905.63
2022-07-29T06:20:54.671Z,94922.75
2022-07-29T06:21:51.447Z,94933.25
2022-07-29T06:22:48.291Z,94820.81
2022-07-29T06:23:46.382Z,94907.91
2022-07-29T06:24:44.875Z,94921.78
2022-07-29T06:25:42.139Z,94924.00
2022-07-29T06:26:43.274Z,94929.81
2022-07-29T06:27:40.011Z,94890.22
2022-07-29T06:28:36.723Z,94924.38
2022-07-29T06:29:33.466Z,94936.63
2022-07-29T06:30:30.709Z,94904.13
2022-07-29T06:31:27.818Z,94899.84
2022-07-29T06:32:27.422Z,94888.22
2022-07-29T06:33:24.299Z,94813.56
2022-07-29T06:34:23.016Z,94801.47
2022-07-29T06:35:41.668Z,94916.16
2022-07-29T06:36:38.302Z,94903.44
2022-07-29T06:37:36.614Z,94911.84
2022-07-29T06:38:42.062Z,94903.13
2022-07-29T06:39:41.737Z,94894.47
2022-07-29T06:41:01.011Z,94919.38
2022-07-29T06:41:57.837Z,94922.06
2022-07-29T06:42:54.680Z,94919.50
2022-07-29T06:43:55.296Z,94842.69
2022-07-29T06:44:53.664Z,94885.66
2022-07-29T06:45:50.460Z,94929.09
2022-07-29T06:46:52.719Z,94926.84
2022-07-29T06:47:50.839Z,94799.47
2022-07-29T06:48:51.111Z,94910.50
2022-07-29T06:49:47.930Z,94906.84
2022-07-29T06:50:47.108Z,94922.47
2022-07-29T06:51:43.847Z,94929.56
2022-07-29T06:52:41.845Z,94916.22
2022-07-29T06:53:39.650Z,94919.38
2022-07-29T06:54:56.035Z,94799.72
2022-07-29T06:55:52.792Z,94912.09
2022-07-29T06:56:49.625Z,94905.63
2022-07-29T06:57:47.418Z,94914.28
2022-07-29T06:58:48.092Z,94919.22
2022-07-29T06:59:44.845Z,94884.47
2022-07-29T07:00:41.598Z,94915.84
2022-07-29T07:01:41.201Z,94827.94
2022-07-29T07:02:38.110Z,94913.28
2022-07-29T07:03:35.023Z,94920.34
2022-07-29T07:04:31.811Z,94887.19
2022-07-29T07:05:28.529Z,94914.69
2022-07-29T07:06:26.157Z,94915.25
2022-07-29T07:07:23.027Z,94896.34
2022-07-29T07:08:20.455Z,94869.06
2022-07-29T07:09:17.217Z,94801.41
2022-07-29T07:10:14.058Z,94911.91
2022-07-29T07:11:10.786Z,94913.59
2022-07-29T07:12:08.418Z,94886.78
2022-07-29T07:13:06.456Z,94865.63
2022-07-29T07:14:04.350Z,94913.09
2022-07-29T07:15:01.310Z,94898.03
2022-07-29T07:15:58.023Z,94916.56
2022-07-29T07:16:54.960Z,94905.06
2022-07-29T07:17:56.209Z,94885.59
2022-07-29T07:18:52.926Z,94901.03
2022-07-29T07:19:49.649Z,94901.41
2022-07-29T07:20:46.631Z,94870.66
2022-07-29T07:21:43.479Z,94908.84
2022-07-29T07:22:42.578Z,94893.91
2022-07-29T07:23:40.910Z,94921.72
2022-07-29T07:24:38.125Z,94885.31
2022-07-29T07:25:34.887Z,94897.91
2022-07-29T07:26:31.888Z,94906.78
2022-07-29T07:27:28.754Z,94900.84
2022-07-29T07:28:25.463Z,94902.13
2022-07-29T07:29:22.171Z,94892.19
2022-07-29T07:30:18.902Z,94905.03
2022-07-29T07:31:15.649Z,94910.19
2022-07-29T07:32:14.182Z,94902.38
2022-07-29T07:33:10.916Z,94870.53
2022-07-29T07:34:07.633Z,94893.16
2022-07-29T07:35:06.791Z,94894.53
2022-07-29T07:36:03.707Z,94787.66
2022-07-29T07:37:00.421Z,94874.78
2022-07-29T07:37:57.592Z,94895.22
2022-07-29T07:38:54.397Z,94823.69
2022-07-29T07:39:51.735Z,94890.88
2022-07-29T07:40:48.699Z,94809.97
2022-07-29T07:41:45.423Z,94899.16
2022-07-29T07:42:42.481Z,94895.34
2022-07-29T07:43:40.030Z,94908.66
2022-07-29T07:44:57.267Z,94907.59
2022-07-29T07:45:53.852Z,94905.88
2022-07-29T07:46:50.654Z,94899.03
2022-07-29T07:47:47.735Z,94892.28
2022-07-29T07:48:44.574Z,94895.28
2022-07-29T07:49:41.706Z,94893.41
2022-07-29T07:50:38.820Z,94778.19
2022-07-29T07:51:35.718Z,94884.78
2022-07-29T07:52:32.635Z,94905.94
2022-07-29T07:53:30.698Z,94895.13
2022-07-29T07:54:27.507Z,94781.69
2022-07-29T07:55:25.745Z,94875.94
2022-07-29T07:56:22.651Z,94894.47
2022-07-29T07:57:19.624Z,94898.22
2022-07-29T07:58:16.393Z,94779.31
2022-07-29T07:59:13.114Z,94771.88
2022-07-29T08:00:10.269Z,94882.00
2022-07-29T08:01:07.705Z,94892.50
2022-07-29T08:02:05.606Z,94902.72
2022-07-29T08:03:02.463Z,94900.09
2022-07-29T08:03:59.270Z,94763.25
2022-07-29T08:04:55.998Z,94896.47
2022-07-29T08:05:52.938Z,94899.88
2022-07-29T08:06:50.885Z,94771.97
2022-07-29T08:07:48.067Z,94872.50
2022-07-29T08:08:44.925Z,94870.31
2022-07-29T08:09:41.838Z,94778.78
2022-07-29T08:10:53.929Z,94884.88
2022-07-29T08:11:52.193Z,94889.31
2022-07-29T08:12:49.182Z,94894.06
2022-07-29T08:13:45.963Z,94879.50
2022-07-29T08:14:42.687Z,94894.44
2022-07-29T08:15:40.640Z,94861.84
2022-07-29T08:16:37.407Z,94904.97
2022-07-29T08:17:35.342Z,94910.84
2022-07-29T08:18:32.535Z,94787.47
2022-07-29T08:19:29.340Z,94902.25
2022-07-29T08:20:26.605Z,94907.50
2022-07-29T08:21:25.515Z,94901.88
2022-07-29T08:22:22.309Z,94877.09
2022-07-29T08:23:20.099Z,94842.44
2022-07-29T08:24:35.389Z,94890.75
2022-07-29T08:25:32.108Z,94897.22
2022-07-29T08:26:31.382Z,94893.59
2022-07-29T08:27:45.499Z,94899.72
2022-07-29T08:28:50.364Z,94861.22
2022-07-29T08:29:47.605Z,94790.34
2022-07-29T08:30:44.440Z,94789.09
2022-07-29T08:31:41.925Z,94871.22
2022-07-29T08:32:55.545Z,94889.25
2022-07-29T08:33:52.730Z,94889.13
2022-07-29T08:34:49.510Z,94899.13
2022-07-29T08:35:46.650Z,94883.78
2022-07-29T08:36:43.382Z,94903.34
2022-07-29T08:37:40.115Z,94897.97
2022-07-29T08:38:36.849Z,94908.50
2022-07-29T08:39:33.596Z,94894.13
2022-07-29T08:40:32.504Z,94895.03
2022-07-29T08:41:29.743Z,94851.13
2022-07-29T08:42:26.686Z,94891.34
2022-07-29T08:43:24.142Z,94896.78
2022-07-29T08:44:31.138Z,94848.13
2022-07-29T08:45:30.465Z,94881.69
2022-07-29T08:46:27.317Z,94882.84
2022-07-29T08:47:27.268Z,94898.81
2022-07-29T08:48:25.701Z,94891.44
2022-07-29T08:49:22.530Z,94880.66
2022-07-29T08:50:19.316Z,94763.50
2022-07-29T08:51:19.433Z,94892.38
2022-07-29T08:52:17.232Z,94783.59
2022-07-29T08:53:16.719Z,94803.47
2022-07-29T08:54:18.730Z,94898.00
2022-07-29T08:55:16.739Z,94851.00
2022-07-29T08:56:20.217Z,94882.34
2022-07-29T08:57:18.283Z,94895.34
2022-07-29T08:58:18.479Z,94869.41
2022-07-29T08:59:23.067Z,94860.16
2022-07-29T09:00:19.939Z,94880.25
2022-07-29T09:01:21.879Z,94880.75
2022-07-29T09:02:25.331Z,94887.63
2022-07-29T09:03:25.701Z,94867.56
2022-07-29T09:04:28.310Z,94879.81
2022-07-29T09:05:27.504Z,94862.94
2022-07-29T09:06:28.821Z,94894.13
2022-07-29T09:07:25.558Z,94887.25
2022-07-29T09:08:34.719Z,94839.44
2022-07-29T09:09:31.837Z,94876.19
2022-07-29T09:10:30.358Z,94839.41
2022-07-29T09:11:27.826Z,94868.50
2022-07-29T09:12:29.280Z,94845.88
2022-07-29T09:13:26.994Z,94848.69
2022-07-29T09:14:23.751Z,94771.00
2022-07-29T09:15:20.586Z,94814.91
2022-07-29T09:16:37.290Z,94880.34
2022-07-29T09:17:45.585Z,94873.28
2022-07-29T09:18:44.975Z,94862.44
2022-07-29T09:19:45.458Z,94877.09
2022-07-29T09:21:12.061Z,94864.00
2022-07-29T09:22:10.973Z,94891.03
2022-07-29T09:23:09.237Z,94846.91
2022-07-29T09:24:11.782Z,94872.06
2022-07-29T09:25:09.503Z,94867.38
2022-07-29T09:26:07.191Z,94861.66
2022-07-29T09:27:09.449Z,94864.84
2022-07-29T09:28:11.591Z,94873.06
2022-07-29T09:29:14.273Z,94872.53
2022-07-29T09:30:14.913Z,94868.16
2022-07-29T09:31:38.053Z,94864.66
2022-07-29T09:32:57.109Z,94864.97
2022-07-29T09:33:59.236Z,94833.31
2022-07-29T09:35:15.523Z,94859.44
2022-07-29T09:36:12.849Z,94841.59
2022-07-29T09:37:09.686Z,94771.63
2022-07-29T09:38:13.654Z,94831.22
2022-07-29T09:39:13.769Z,94742.66
2022-07-29T09:40:29.323Z,94769.31
2022-07-29T09:41:26.322Z,94864.78
2022-07-29T09:42:30.849Z,94853.16
2022-07-29T09:43:27.858Z,94867.34
2022-07-29T09:44:25.899Z,94758.22
2022-07-29T09:45:31.073Z,94852.16
2022-07-29T09:46:28.155Z,94862.50
2022-07-29T09:47:43.047Z,94858.78
2022-07-29T09:48:40.254Z,94853.41
2022-07-29T09:49:55.527Z,94837.88
2022-07-29T09:50:53.427Z,94848.38
2022-07-29T09:52:00.838Z,94844.63
2022-07-29T09:52:57.611Z,94854.69
2022-07-29T09:53:55.287Z,94783.41
2022-07-29T09:54:52.559Z,94717.88
2022-07-29T09:55:53.404Z,94822.44
2022-07-29T09:56:51.011Z,94857.84
2022-07-29T09:57:48.293Z,94845.78
2022-07-29T09:58:45.047Z,94741.56
2022-07-29T09:59:57.644Z,94847.84
2022-07-29T10:00:56.233Z,94826.41
2022-07-29T10:01:54.427Z,94833.09
2022-07-29T10:02:51.900Z,94779.72
2022-07-29T10:03:53.336Z,94843.38
2022-07-29T10:04:50.305Z,94817.84
2022-07-29T10:06:05.434Z,94833.59
2022-07-29T10:07:05.354Z,94734.13
2022-07-29T10:08:03.147Z,94805.91
2022-07-29T10:09:12.544Z,94845.25
2022-07-29T10:10:09.606Z,94765.53
2022-07-29T10:11:17.835Z,94832.97
2022-07-29T10:12:15.465Z,94843.97
2022-07-29T10:13:16.531Z,94842.63
2022-07-29T10:14:13.614Z,94772.56
2022-07-29T10:15:10.576Z,94805.63
2022-07-29T10:16:07.676Z,94831.84
2022-07-29T10:17:06.592Z,94727.28
2022-07-29T10:18:03.404Z,94809.81
2022-07-29T10:19:02.136Z,94830.25
2022-07-29T10:19:58.833Z,94824.78
2022-07-29T10:20:56.315Z,94798.56
2022-07-29T10:21:57.730Z,94729.69
2022-07-29T10:22:55.485Z,94826.53
2022-07-29T10:23:53.874Z,94786.38
2022-07-29T10:24:56.444Z,94809.69
2022-07-29T10:25:53.351Z,94666.91
2022-07-29T10:26:51.382Z,94720.41
2022-07-29T10:27:49.879Z,94779.84
2022-07-29T10:28:46.732Z,94780.25
2022-07-29T10:29:43.432Z,94692.75
2022-07-29T10:30:42.224Z,94771.25
2022-07-29T10:32:14.430Z,94803.97
2022-07-29T10:33:57.653Z,94803.53
2022-07-29T10:35:15.487Z,94803.34
2022-07-29T10:36:30.794Z,94800.97
2022-07-29T10:37:51.812Z,94792.28
2022-07-29T10:39:07.369Z,94783.34
2022-07-29T10:40:45.730Z,94795.03
2022-07-29T10:41:57.887Z,94796.28
2022-07-29T10:43:00.471Z,94821.28
2022-07-29T10:44:04.807Z,94694.28
2022-07-29T10:45:04.387Z,94793.22
2022-07-29T10:46:02.411Z,94789.84
2022-07-29T10:47:00.218Z,94762.66
2022-07-29T10:48:07.828Z,94790.28
2022-07-29T10:49:15.442Z,94788.91
2022-07-29T10:51:58.545Z,94782.34
2022-07-29T10:52:59.711Z,94635.94
2022-07-29T10:53:56.533Z,94788.78
2022-07-29T10:54:54.977Z,94776.03
2022-07-29T10:55:53.737Z,94799.00
2022-07-29T10:56:50.556Z,94784.19
2022-07-29T10:58:13.586Z,94712.09
2022-07-29T10:59:19.314Z,94772.16
2022-07-29T11:00:29.805Z,94741.06
2022-07-29T11:01:37.456Z,94770.81
2022-07-29T11:02:42.073Z,94764.94
2022-07-29T11:03:52.101Z,94776.91
2022-07-29T11:04:51.848Z,94771.38
2022-07-29T11:05:59.787Z,94754.75
2022-07-29T11:06:59.766Z,94766.50
2022-07-29T11:09:38.411Z,94734.84
2022-07-29T11:10:35.467Z,94766.50
2022-07-29T11:11:33.320Z,94752.94
2022-07-29T11:12:37.690Z,94759.47
2022-07-29T11:13:46.549Z,94757.00
2022-07-29T11:15:03.575Z,94753.84
2022-07-29T11:16:00.365Z,94742.50
2022-07-29T11:18:20.428Z,94759.09
2022-07-29T11:19:26.229Z,94739.81
2022-07-29T11:20:32.704Z,94754.69
2022-07-29T11:21:49.040Z,94749.81
2022-07-29T11:22:51.799Z,94752.22
2022-07-29T11:23:49.844Z,94762.75
2022-07-29T11:26:33.002Z,94760.16
2022-07-29T11:27:40.456Z,94703.16
2022-07-29T11:28:49.870Z,94758.03
2022-07-29T11:29:58.527Z,94754.72
2022-07-29T11:30:56.205Z,94735.72
2022-07-29T11:32:10.321Z,94754.72
2022-07-29T11:33:54.169Z,94737.75
2022-07-29T11:34:49.458Z,94728.00
2022-07-29T11:36:16.658Z,94746.56
2022-07-29T11:37:13.706Z,94736.06
2022-07-29T11:38:41.708Z,94746.34
2022-07-29T11:39:44.513Z,94728.47
2022-07-29T11:41:21.701Z,94750.41
2022-07-29T11:42:32.606Z,94739.63
2022-07-29T11:43:54.537Z,94741.31
2022-07-29T11:45:08.411Z,94734.03
2022-07-29T11:46:45.075Z,94734.97
2022-07-29T11:47:57.112Z,94726.59
2022-07-29T11:48:58.935Z,94724.34
2022-07-29T11:50:00.023Z,94689.75
2022-07-29T11:50:58.364Z,94753.16
2022-07-29T11:52:05.517Z,94752.19
2022-07-29T11:53:13.431Z,94702.44
2022-07-29T11:54:18.002Z,94733.06
2022-07-29T11:55:32.665Z,94684.75
2022-07-29T11:56:33.721Z,94722.81
2022-07-29T11:57:36.213Z,94641.88
2022-07-29T11:58:34.637Z,94679.38
2022-07-29T11:59:44.353Z,94731.91
2022-07-29T12:00:43.547Z,94620.50
2022-07-29T12:02:02.438Z,94700.47
2022-07-29T12:03:12.135Z,94725.88
2022-07-29T12:04:09.270Z,94722.94